createdAt,value
2022-12-16T00:00:35.123Z,44.73
2022-12-16T00:03:08.839Z,44.38
2022-12-16T00:05:43.000Z,43.33
2022-12-16T00:08:11.726Z,43.75
2022-12-16T00:10:54.937Z,44.27
2022-12-16T00:13:27.312Z,42.78
2022-12-16T00:15:58.018Z,41.28
2022-12-16T00:18:29.178Z,39.23
2022-12-16T00:20:59.991Z,39.00
2022-12-16T00:23:38.984Z,41.15
2022-12-16T00:26:10.353Z,40.28
2022-12-16T00:28:42.206Z,40.15
2022-12-16T00:31:13.149Z,40.12
2022-12-16T00:33:43.989Z,39.00
2022-12-16T00:36:14.794Z,39.67
2022-12-16T00:38:45.464Z,39.70
2022-12-16T00:41:16.150Z,42.40
2022-12-16T00:43:47.755Z,44.85
2022-12-16T00:46:22.143Z,43.85
2022-12-16T00:48:53.012Z,43.80
2022-12-16T00:51:27.969Z,43.65
2022-12-16T00:53:59.067Z,44.00
2022-12-16T00:56:29.729Z,41.60
2022-12-16T00:59:00.393Z,48.10
2022-12-16T01:01:31.396Z,53.50
2022-12-16T01:04:02.158Z,53.40
2022-12-16T01:06:33.796Z,46.20
2022-12-16T01:09:04.463Z,45.73
2022-12-16T01:11:35.232Z,45.03
2022-12-16T01:14:06.120Z,37.75
2022-12-16T01:16:36.782Z,39.58
2022-12-16T01:19:07.529Z,37.05
2022-12-16T01:21:38.349Z,38.73
2022-12-16T01:24:09.447Z,38.15
2022-12-16T01:26:40.616Z,38.50
2022-12-16T01:29:11.400Z,37.60
2022-12-16T01:31:42.113Z,36.33
2022-12-16T01:34:12.926Z,36.63
2022-12-16T01:36:43.596Z,38.05
2022-12-16T01:39:14.675Z,37.48
2022-12-16T01:41:45.348Z,39.40
2022-12-16T01:44:21.350Z,38.28
2022-12-16T01:47:00.869Z,38.38
2022-12-16T01:49:49.024Z,38.70
2022-12-16T01:52:22.353Z,38.15
2022-12-16T01:54:55.652Z,37.35
2022-12-16T01:57:28.905Z,37.03
2022-12-16T02:00:00.177Z,37.17
2022-12-16T02:02:31.057Z,36.05
2022-12-16T02:05:19.598Z,35.50
2022-12-16T02:07:58.654Z,35.03
2022-12-16T02:10:43.834Z,36.65
2022-12-16T02:13:36.691Z,36.45
2022-12-16T02:16:21.970Z,35.50
2022-12-16T02:19:19.487Z,34.67
2022-12-16T02:22:10.930Z,33.48
2022-12-16T02:24:56.044Z,34.08
2022-12-16T02:27:44.999Z,33.05
2022-12-16T02:30:34.945Z,32.88
2022-12-16T02:33:20.598Z,33.73
2022-12-16T02:36:15.076Z,33.40
2022-12-16T02:39:00.672Z,32.65
2022-12-16T02:41:36.893Z,31.82
2022-12-16T02:44:12.918Z,32.35
2022-12-16T02:46:46.253Z,33.23
2022-12-16T02:49:19.502Z,31.48
2022-12-16T02:51:51.256Z,31.82
2022-12-16T02:54:23.504Z,30.77
2022-12-16T02:57:19.405Z,29.00
2022-12-16T02:59:55.686Z,29.05
2022-12-16T03:02:31.054Z,28.62
2022-12-16T03:05:11.836Z,26.87
2022-12-16T03:07:44.824Z,28.05
2022-12-16T03:10:19.121Z,27.50
2022-12-16T03:12:50.345Z,27.00
2022-12-16T03:15:23.969Z,27.15
2022-12-16T03:17:57.599Z,26.42
2022-12-16T03:20:40.427Z,26.42
2022-12-16T03:23:13.671Z,25.23
2022-12-16T03:25:46.305Z,26.90
2022-12-16T03:28:37.702Z,26.90
2022-12-16T03:31:28.872Z,26.87
2022-12-16T03:34:08.354Z,26.85
2022-12-16T03:36:41.835Z,25.80
2022-12-16T03:39:14.396Z,25.60
2022-12-16T03:41:47.830Z,24.02
2022-12-16T03:44:19.791Z,24.32
2022-12-16T03:46:51.435Z,24.50
2022-12-16T03:49:23.824Z,25.00
2022-12-16T03:51:56.421Z,24.52
2022-12-16T03:54:27.175Z,22.73
2022-12-16T03:56:58.145Z,23.02
2022-12-16T03:59:28.993Z,24.40
2022-12-16T04:02:01.181Z,23.73
2022-12-16T04:04:32.019Z,24.07
2022-12-16T04:07:20.738Z,24.02
2022-12-16T04:09:52.537Z,23.18
2022-12-16T04:12:40.591Z,25.00
2022-12-16T04:15:22.420Z,24.20
2022-12-16T04:18:11.176Z,23.92
2022-12-16T04:21:01.635Z,23.02
2022-12-16T04:23:53.644Z,24.82
2022-12-16T04:26:25.186Z,23.65
2022-12-16T04:28:56.369Z,25.23
2022-12-16T04:31:27.670Z,24.95
2022-12-16T04:34:16.457Z,25.37
2022-12-16T04:37:05.587Z,23.57
2022-12-16T04:39:54.472Z,25.10
2022-12-16T04:42:43.913Z,23.45
2022-12-16T04:45:34.624Z,24.12
2022-12-16T04:48:23.567Z,24.27
2022-12-16T04:51:12.231Z,23.67
2022-12-16T04:54:01.489Z,23.62
2022-12-16T04:57:08.884Z,23.42
2022-12-16T04:59:58.970Z,23.80
2022-12-16T05:02:47.798Z,21.95
2022-12-16T05:05:36.525Z,23.55
2022-12-16T05:08:25.289Z,22.13
2022-12-16T05:11:13.807Z,21.12
2022-12-16T05:14:02.743Z,24.60
2022-12-16T05:16:51.825Z,21.37
2022-12-16T05:19:43.957Z,21.17
2022-12-16T05:22:32.917Z,21.93
2022-12-16T05:25:21.057Z,19.77
2022-12-16T05:28:13.643Z,19.25
2022-12-16T05:31:02.083Z,19.65
2022-12-16T05:33:50.710Z,20.08
2022-12-16T05:36:39.201Z,18.87
2022-12-16T05:39:28.076Z,18.20
2022-12-16T05:42:18.164Z,17.25
2022-12-16T05:45:06.304Z,17.75
2022-12-16T05:47:54.898Z,17.12
2022-12-16T05:50:43.038Z,16.67
2022-12-16T05:53:31.726Z,17.20
2022-12-16T05:56:20.643Z,16.52
2022-12-16T05:59:09.312Z,17.15
2022-12-16T06:01:57.874Z,16.82
2022-12-16T06:04:46.537Z,15.58
2022-12-16T06:07:35.277Z,17.37
2022-12-16T06:10:27.744Z,14.75
2022-12-16T06:13:16.459Z,16.62
2022-12-16T06:16:08.988Z,17.98
2022-12-16T06:18:55.830Z,15.98
2022-12-16T06:21:44.896Z,15.35
2022-12-16T06:24:34.163Z,15.30
2022-12-16T06:27:22.510Z,15.95
2022-12-16T06:30:11.266Z,16.00
2022-12-16T06:32:59.277Z,15.45
2022-12-16T06:35:47.420Z,14.10
2022-12-16T06:38:38.452Z,13.72
2022-12-16T06:41:27.630Z,14.80
2022-12-16T06:44:16.168Z,14.87
2022-12-16T06:47:03.945Z,14.47
2022-12-16T06:49:52.522Z,14.00
2022-12-16T06:52:40.913Z,13.95
2022-12-16T06:55:29.798Z,14.00
2022-12-16T06:58:19.230Z,14.87
2022-12-16T07:01:08.222Z,14.15
2022-12-16T07:03:57.776Z,16.75
2022-12-16T07:06:46.264Z,14.80
2022-12-16T07:09:35.196Z,13.55
2022-12-16T07:12:24.562Z,14.45
2022-12-16T07:15:13.875Z,14.23
2022-12-16T07:18:06.119Z,14.47
2022-12-16T07:20:55.007Z,14.50
2022-12-16T07:23:43.736Z,14.18
2022-12-16T07:26:33.777Z,14.38
2022-12-16T07:29:22.108Z,15.08
2022-12-16T07:32:11.618Z,14.73
2022-12-16T07:34:59.599Z,14.28
2022-12-16T07:37:48.233Z,15.15
2022-12-16T07:40:38.171Z,14.15
2022-12-16T07:43:28.259Z,16.25
2022-12-16T07:46:15.346Z,14.30
2022-12-16T07:49:05.594Z,15.05
2022-12-16T07:51:59.348Z,14.65
2022-12-16T07:54:48.102Z,13.78
2022-12-16T07:57:26.316Z,14.65
2022-12-16T08:00:17.213Z,15.00
2022-12-16T08:03:05.847Z,14.35
2022-12-16T08:05:54.423Z,14.15
2022-12-16T08:08:44.100Z,15.58
2022-12-16T08:11:33.320Z,14.25
2022-12-16T08:14:21.894Z,14.85
2022-12-16T08:17:10.126Z,15.78
2022-12-16T08:19:59.131Z,14.70
2022-12-16T08:22:47.886Z,15.85
2022-12-16T08:25:19.979Z,14.63
2022-12-16T08:28:10.481Z,15.13
2022-12-16T08:30:44.899Z,14.55
2022-12-16T08:33:33.300Z,14.87
2022-12-16T08:36:22.893Z,15.90
2022-12-16T08:39:13.188Z,14.23
2022-12-16T08:42:02.254Z,14.55
2022-12-16T08:44:50.509Z,14.73
2022-12-16T08:47:39.072Z,14.15
2022-12-16T08:50:28.114Z,14.38
2022-12-16T08:53:17.381Z,14.30
2022-12-16T08:56:06.450Z,14.53
2022-12-16T08:58:54.999Z,15.83
2022-12-16T09:01:44.422Z,13.45
2022-12-16T09:04:36.102Z,14.70
2022-12-16T09:07:25.053Z,15.15
2022-12-16T09:10:14.124Z,14.98
2022-12-16T09:13:03.084Z,13.25
2022-12-16T09:15:51.893Z,17.25
2022-12-16T09:18:43.831Z,15.45
2022-12-16T09:21:33.457Z,13.93
2022-12-16T09:24:21.798Z,15.90
2022-12-16T09:27:10.550Z,15.08
2022-12-16T09:29:59.801Z,14.00
2022-12-16T09:32:48.563Z,13.70
2022-12-16T09:35:37.948Z,14.75
2022-12-16T09:38:26.908Z,14.28
2022-12-16T09:41:15.354Z,13.85
2022-12-16T09:44:27.461Z,14.18
2022-12-16T09:47:33.205Z,15.85
2022-12-16T09:50:21.974Z,15.58
2022-12-16T09:53:22.407Z,16.35
2022-12-16T09:56:12.380Z,14.35
2022-12-16T09:59:03.616Z,14.00
2022-12-16T10:01:54.746Z,16.60
2022-12-16T10:04:45.801Z,15.35
2022-12-16T10:07:39.912Z,17.92
2022-12-16T10:10:48.941Z,15.58
2022-12-16T10:13:48.465Z,14.93
2022-12-16T10:16:58.752Z,15.95
2022-12-16T10:20:10.260Z,20.57
2022-12-16T10:23:17.587Z,15.63
2022-12-16T10:26:20.369Z,17.82
2022-12-16T10:29:10.769Z,16.15
2022-12-16T10:32:01.871Z,15.58
2022-12-16T10:35:00.455Z,16.95
2022-12-16T10:38:00.188Z,15.45
2022-12-16T10:40:50.826Z,19.25
2022-12-16T10:43:47.680Z,21.50
2022-12-16T10:46:40.356Z,17.98
2022-12-16T10:49:32.018Z,15.53
2022-12-16T10:52:21.178Z,23.18
2022-12-16T10:55:23.225Z,21.48
2022-12-16T10:58:22.871Z,22.25
2022-12-16T11:01:13.043Z,22.85
2022-12-16T11:04:01.965Z,24.43
2022-12-16T11:07:01.369Z,24.15
2022-12-16T11:09:52.079Z,18.70
2022-12-16T11:12:49.884Z,16.95
2022-12-16T11:15:49.955Z,17.60
2022-12-16T11:18:41.927Z,17.80
2022-12-16T11:21:39.364Z,20.70
2022-12-16T11:24:36.141Z,21.87
2022-12-16T11:27:39.134Z,21.33
2022-12-16T11:30:39.343Z,21.70
2022-12-16T11:33:36.029Z,22.67
2022-12-16T11:36:30.278Z,23.18
2022-12-16T11:39:19.318Z,22.22
2022-12-16T11:42:10.569Z,24.52
2022-12-16T11:45:03.672Z,23.90
2022-12-16T11:48:10.755Z,23.98
2022-12-16T11:51:02.237Z,25.08
2022-12-16T11:53:56.150Z,25.00
2022-12-16T11:56:47.891Z,26.82
2022-12-16T11:59:44.264Z,28.80
2022-12-16T12:05:21.333Z,27.20
2022-12-16T12:08:10.533Z,22.85
2022-12-16T12:11:15.845Z,22.90
2022-12-16T12:14:09.322Z,21.50
2022-12-16T12:17:11.621Z,21.85
2022-12-16T12:20:21.074Z,21.15
2022-12-16T12:23:10.146Z,21.07
2022-12-16T12:26:25.412Z,21.62
2022-12-16T12:29:45.986Z,21.45
2022-12-16T12:32:58.118Z,21.52
2022-12-16T12:36:16.065Z,23.40
2022-12-16T12:39:22.321Z,22.37
2022-12-16T12:42:31.185Z,22.98
2022-12-16T12:45:36.831Z,24.20
2022-12-16T12:48:28.468Z,22.90
2022-12-16T12:51:41.973Z,22.93
2022-12-16T12:54:52.591Z,24.80
2022-12-16T12:57:43.136Z,22.95
2022-12-16T13:00:36.990Z,23.25
2022-12-16T13:03:35.098Z,24.15
2022-12-16T13:06:25.322Z,25.43
2022-12-16T13:09:17.195Z,25.62
2022-12-16T13:12:28.064Z,26.77
2022-12-16T13:15:31.244Z,26.55
2022-12-16T13:18:25.526Z,27.62
2022-12-16T13:21:18.753Z,28.67
2022-12-16T13:24:08.869Z,26.62
2022-12-16T13:27:00.432Z,28.62
2022-12-16T13:30:01.299Z,29.02
2022-12-16T13:32:51.152Z,28.75
2022-12-16T13:35:39.462Z,28.25
2022-12-16T13:38:39.645Z,27.17
2022-12-16T13:41:48.611Z,29.70
2022-12-16T13:45:07.882Z,28.65
2022-12-16T13:48:06.530Z,29.23
2022-12-16T13:51:04.191Z,27.75
2022-12-16T13:53:55.203Z,27.45
2022-12-16T13:56:46.008Z,27.37
2022-12-16T13:59:44.106Z,27.10
2022-12-16T14:02:41.432Z,26.62
2022-12-16T14:05:38.796Z,26.77
2022-12-16T14:08:28.857Z,26.15
2022-12-16T14:11:20.402Z,26.20
2022-12-16T14:14:17.049Z,28.87
2022-12-16T14:17:16.875Z,28.57
2022-12-16T14:20:25.309Z,25.97
2022-12-16T14:23:54.806Z,25.27
2022-12-16T14:26:20.513Z,25.45
2022-12-16T14:29:09.070Z,26.05
2022-12-16T14:32:03.074Z,26.82
2022-12-16T14:34:54.666Z,25.72
2022-12-16T14:37:55.923Z,25.00
2022-12-16T14:40:52.083Z,25.35
2022-12-16T14:43:47.255Z,25.43
2022-12-16T14:46:49.703Z,26.02
2022-12-16T14:49:46.785Z,24.82
2022-12-16T14:52:53.340Z,24.60
2022-12-16T14:55:49.824Z,25.02
2022-12-16T15:01:58.852Z,23.87
2022-12-16T15:04:48.111Z,24.55
2022-12-16T15:07:44.843Z,25.25
2022-12-16T15:10:41.006Z,24.30
2022-12-16T15:13:34.085Z,24.67
2022-12-16T15:16:25.986Z,25.02
2022-12-16T15:19:16.634Z,24.77
2022-12-16T15:22:05.849Z,25.35
2022-12-16T15:24:56.550Z,26.62
2022-12-16T15:27:49.862Z,26.00
2022-12-16T15:31:00.724Z,25.88
2022-12-16T15:33:59.360Z,24.20
2022-12-16T15:36:51.750Z,25.90
2022-12-16T15:39:45.021Z,23.95
2022-12-16T15:42:48.102Z,25.02
2022-12-16T15:45:38.857Z,25.17
2022-12-16T15:48:41.383Z,25.60
2022-12-16T15:51:52.954Z,26.35
2022-12-16T15:54:43.614Z,25.32
2022-12-16T15:57:52.859Z,25.88
2022-12-16T16:00:49.942Z,25.68
2022-12-16T16:03:46.437Z,26.07
2022-12-16T16:06:42.516Z,26.05
2022-12-16T16:09:35.928Z,26.60
2022-12-16T16:12:26.918Z,25.40
2022-12-16T16:15:16.515Z,25.65
2022-12-16T16:18:06.098Z,26.50
2022-12-16T16:20:54.190Z,26.27
2022-12-16T16:23:44.635Z,25.92
2022-12-16T16:26:37.503Z,26.90
2022-12-16T16:29:49.220Z,26.93
2022-12-16T16:32:37.876Z,27.62
2022-12-16T16:35:26.369Z,29.80
2022-12-16T16:38:27.231Z,30.37
2022-12-16T16:41:16.704Z,32.53
2022-12-16T16:44:05.483Z,30.82
2022-12-16T16:47:01.171Z,30.88
2022-12-16T16:50:00.712Z,32.65
2022-12-16T16:52:49.058Z,32.10
2022-12-16T16:55:42.505Z,32.67
2022-12-16T16:58:41.270Z,34.40
2022-12-16T17:01:41.340Z,34.03
2022-12-16T17:04:30.614Z,32.80
2022-12-16T17:07:18.997Z,34.15
2022-12-16T17:10:07.246Z,33.35
2022-12-16T17:12:59.947Z,32.55
2022-12-16T17:15:51.945Z,32.93
2022-12-16T17:18:45.708Z,31.75
2022-12-16T17:21:30.572Z,30.30
2022-12-16T17:24:18.742Z,32.42
2022-12-16T17:27:06.945Z,31.12
2022-12-16T17:29:55.964Z,29.30
2022-12-16T17:32:47.191Z,29.67
2022-12-16T17:35:35.699Z,28.95
2022-12-16T17:38:23.719Z,28.15
2022-12-16T17:41:05.132Z,28.50
2022-12-16T17:43:53.125Z,27.40
2022-12-16T17:46:41.273Z,28.90
2022-12-16T17:49:30.542Z,27.30
2022-12-16T17:52:18.566Z,26.87
2022-12-16T17:55:06.910Z,26.37
2022-12-16T17:57:54.956Z,25.48
2022-12-16T18:00:43.148Z,25.20
2022-12-16T18:03:31.755Z,25.92
2022-12-16T18:06:20.611Z,23.20
2022-12-16T18:09:08.850Z,23.38
2022-12-16T18:11:56.902Z,22.30
2022-12-16T18:14:45.053Z,20.62
2022-12-16T18:17:33.014Z,21.90
2022-12-16T18:20:21.409Z,21.45
2022-12-16T18:23:13.743Z,21.05
2022-12-16T18:26:02.315Z,20.00
2022-12-16T18:28:50.406Z,19.98
2022-12-16T18:31:38.768Z,19.82
2022-12-16T18:34:28.696Z,19.42
2022-12-16T18:37:17.753Z,20.17
2022-12-16T18:40:06.930Z,19.82
2022-12-16T18:42:57.167Z,18.95
2022-12-16T18:45:45.668Z,17.90
2022-12-16T18:48:34.096Z,18.62
2022-12-16T18:51:22.429Z,18.10
2022-12-16T18:54:10.901Z,17.85
2022-12-16T18:57:00.873Z,17.30
2022-12-16T18:59:48.721Z,17.77
2022-12-16T19:02:37.188Z,16.17
2022-12-16T19:05:26.085Z,15.50
2022-12-16T19:08:14.607Z,17.07
2022-12-16T19:11:03.749Z,17.12
2022-12-16T19:13:51.936Z,16.73
2022-12-16T19:16:40.033Z,16.27
2022-12-16T19:19:31.388Z,17.27
2022-12-16T19:22:20.390Z,16.73
2022-12-16T19:25:11.738Z,17.90
2022-12-16T19:27:59.765Z,17.48
2022-12-16T19:30:48.123Z,17.17
2022-12-16T19:33:36.686Z,17.40
2022-12-16T19:36:28.065Z,18.12
2022-12-16T19:39:16.132Z,18.48
2022-12-16T19:42:05.899Z,18.20
2022-12-16T19:44:54.041Z,17.95
2022-12-16T19:47:43.122Z,19.30
2022-12-16T19:50:31.389Z,18.65
2022-12-16T19:53:21.790Z,18.67
2022-12-16T19:56:20.384Z,19.42
2022-12-16T19:59:08.474Z,22.22
2022-12-16T20:01:59.707Z,21.30
2022-12-16T20:04:47.879Z,20.25
2022-12-16T20:07:36.353Z,23.27
2022-12-16T20:10:26.361Z,21.35
2022-12-16T20:16:10.525Z,23.40
2022-12-16T20:18:58.601Z,22.07
2022-12-16T20:21:49.054Z,23.42
2022-12-16T20:24:36.909Z,23.07
2022-12-16T20:27:25.028Z,24.00
2022-12-16T20:30:13.167Z,21.95
2022-12-16T20:33:01.468Z,22.85
2022-12-16T20:35:49.694Z,22.02
2022-12-16T20:38:38.003Z,21.27
2022-12-16T20:41:26.163Z,21.70
2022-12-16T20:44:14.311Z,21.27
2022-12-16T20:47:02.655Z,20.75
2022-12-16T20:49:50.842Z,21.00
2022-12-16T20:52:39.567Z,20.48
2022-12-16T20:55:28.523Z,19.32
2022-12-16T20:58:16.720Z,19.23
2022-12-16T21:01:06.449Z,19.55
2022-12-16T21:03:55.043Z,19.27
2022-12-16T21:06:44.872Z,19.95
2022-12-16T21:09:33.098Z,19.57
2022-12-16T21:12:21.475Z,18.12
2022-12-16T21:15:09.758Z,17.73
2022-12-16T21:17:57.750Z,18.73
2022-12-16T21:20:45.964Z,17.23
2022-12-16T21:23:34.050Z,17.50
2022-12-16T21:26:22.653Z,18.40
2022-12-16T21:29:10.969Z,18.48
2022-12-16T21:32:00.923Z,17.55
2022-12-16T21:34:49.314Z,16.07
2022-12-16T21:37:30.274Z,16.50
2022-12-16T21:40:18.408Z,16.65
2022-12-16T21:43:06.460Z,17.48
2022-12-16T21:45:56.192Z,16.12
2022-12-16T21:48:44.958Z,16.45
2022-12-16T21:51:33.046Z,17.25
2022-12-16T21:54:21.353Z,15.70
2022-12-16T21:57:09.715Z,16.93
2022-12-16T21:59:57.856Z,17.15
2022-12-16T22:02:46.061Z,17.17
2022-12-16T22:05:34.380Z,17.48
2022-12-16T22:08:26.668Z,15.85
2022-12-16T22:11:15.313Z,15.55
2022-12-16T22:14:03.491Z,15.18
2022-12-16T22:16:51.869Z,15.05
2022-12-16T22:19:40.082Z,15.08
2022-12-16T22:22:28.822Z,13.70
2022-12-16T22:25:16.641Z,15.05
2022-12-16T22:28:05.318Z,14.40
2022-12-16T22:30:53.448Z,15.18
2022-12-16T22:33:43.189Z,14.50
2022-12-16T22:36:34.748Z,15.78
2022-12-16T22:39:22.905Z,15.25
2022-12-16T22:42:11.125Z,16.05
2022-12-16T22:45:00.506Z,15.83
2022-12-16T22:48:07.711Z,14.65
2022-12-16T22:50:56.326Z,16.52
2022-12-16T22:53:44.950Z,15.55
2022-12-16T22:56:33.377Z,16.05
2022-12-16T22:59:21.615Z,15.10
2022-12-16T23:02:10.007Z,15.05
2022-12-16T23:04:58.377Z,14.63
2022-12-16T23:07:46.522Z,14.43
2022-12-16T23:10:34.937Z,14.58
2022-12-16T23:13:23.317Z,15.32
2022-12-16T23:16:13.351Z,14.98
2022-12-16T23:19:01.703Z,16.02
2022-12-16T23:21:49.719Z,18.50
2022-12-16T23:24:37.847Z,18.75
2022-12-16T23:27:26.009Z,18.23
2022-12-16T23:30:14.484Z,17.87
2022-12-16T23:33:02.565Z,19.23
2022-12-16T23:35:50.519Z,18.82
2022-12-16T23:38:38.592Z,18.82
2022-12-16T23:41:26.580Z,20.40
2022-12-16T23:44:14.537Z,22.27
2022-12-16T23:47:02.821Z,22.65
2022-12-16T23:49:51.982Z,24.05
2022-12-16T23:52:40.431Z,25.48
2022-12-16T23:55:29.130Z,23.35
2022-12-16T23:58:22.332Z,21.85
